sensor_id;sensor_type;location;lat;lon;timestamp;P1;durP1;ratioP1;P2;durP2;ratioP2
10341;SDS011;5216;54.602;18.356;2024-03-06T00:00:12;14.70;;;12.27;;
10341;SDS011;5216;54.602;18.356;2024-03-06T00:02:39;13.43;;;12.07;;
10341;SDS011;5216;54.602;18.356;2024-03-06T00:05:06;13.30;;;11.90;;
10341;SDS011;5216;54.602;18.356;2024-03-06T00:07:35;13.37;;;11.47;;
10341;SDS011;5216;54.602;18.356;2024-03-06T00:10:02;11.57;;;10.47;;
10341;SDS011;5216;54.602;18.356;2024-03-06T00:12:31;12.10;;;10.20;;
10341;SDS011;5216;54.602;18.356;2024-03-06T00:14:58;11.47;;;10.27;;
10341;SDS011;5216;54.602;18.356;2024-03-06T00:17:24;11.23;;;10.03;;
10341;SDS011;5216;54.602;18.356;2024-03-06T00:19:51;11.47;;;9.93;;
10341;SDS011;5216;54.602;18.356;2024-03-06T00:22:18;11.43;;;9.50;;
10341;SDS011;5216;54.602;18.356;2024-03-06T00:24:48;11.17;;;9.47;;
10341;SDS011;5216;54.602;18.356;2024-03-06T00:27:15;10.27;;;9.27;;
10341;SDS011;5216;54.602;18.356;2024-03-06T00:29:42;10.23;;;8.80;;
10341;SDS011;5216;54.602;18.356;2024-03-06T00:32:09;11.93;;;9.37;;
10341;SDS011;5216;54.602;18.356;2024-03-06T00:34:36;9.00;;;8.10;;
10341;SDS011;5216;54.602;18.356;2024-03-06T00:37:03;9.87;;;8.67;;
10341;SDS011;5216;54.602;18.356;2024-03-06T00:39:30;8.73;;;7.83;;
10341;SDS011;5216;54.602;18.356;2024-03-06T00:41:56;9.40;;;8.40;;
10341;SDS011;5216;54.602;18.356;2024-03-06T00:44:23;10.13;;;8.43;;
10341;SDS011;5216;54.602;18.356;2024-03-06T00:46:50;11.70;;;8.33;;
10341;SDS011;5216;54.602;18.356;2024-03-06T00:49:16;9.20;;;8.17;;
10341;SDS011;5216;54.602;18.356;2024-03-06T00:51:43;9.50;;;8.50;;
10341;SDS011;5216;54.602;18.356;2024-03-06T00:54:15;8.93;;;7.70;;
10341;SDS011;5216;54.602;18.356;2024-03-06T00:56:43;8.97;;;8.07;;
10341;SDS011;5216;54.602;18.356;2024-03-06T00:59:10;9.03;;;8.07;;
10341;SDS011;5216;54.602;18.356;2024-03-06T01:01:37;9.27;;;8.23;;
10341;SDS011;5216;54.602;18.356;2024-03-06T01:04:04;9.80;;;8.00;;
10341;SDS011;5216;54.602;18.356;2024-03-06T01:06:31;9.03;;;8.13;;
10341;SDS011;5216;54.602;18.356;2024-03-06T01:08:57;8.73;;;7.83;;
10341;SDS011;5216;54.602;18.356;2024-03-06T01:11:25;9.87;;;8.27;;
10341;SDS011;5216;54.602;18.356;2024-03-06T01:13:55;9.53;;;7.70;;
10341;SDS011;5216;54.602;18.356;2024-03-06T01:16:22;10.93;;;7.50;;
10341;SDS011;5216;54.602;18.356;2024-03-06T01:18:48;8.87;;;7.97;;
10341;SDS011;5216;54.602;18.356;2024-03-06T01:21:15;9.23;;;7.60;;
10341;SDS011;5216;54.602;18.356;2024-03-06T01:23:42;9.20;;;7.50;;
10341;SDS011;5216;54.602;18.356;2024-03-06T01:26:10;9.13;;;7.80;;
10341;SDS011;5216;54.602;18.356;2024-03-06T01:28:38;8.20;;;7.40;;
10341;SDS011;5216;54.602;18.356;2024-03-06T01:31:05;8.93;;;7.53;;
10341;SDS011;5216;54.602;18.356;2024-03-06T01:33:33;10.67;;;7.60;;
10341;SDS011;5216;54.602;18.356;2024-03-06T01:35:59;8.30;;;7.33;;
10341;SDS011;5216;54.602;18.356;2024-03-06T01:38:26;11.57;;;7.43;;
10341;SDS011;5216;54.602;18.356;2024-03-06T01:40:53;9.47;;;7.40;;
10341;SDS011;5216;54.602;18.356;2024-03-06T01:43:23;10.67;;;7.80;;
10341;SDS011;5216;54.602;18.356;2024-03-06T01:45:52;9.90;;;7.57;;
10341;SDS011;5216;54.602;18.356;2024-03-06T01:48:26;8.83;;;7.63;;
10341;SDS011;5216;54.602;18.356;2024-03-06T01:50:55;11.17;;;7.43;;
10341;SDS011;5216;54.602;18.356;2024-03-06T01:53:24;11.80;;;7.30;;
10341;SDS011;5216;54.602;18.356;2024-03-06T01:55:53;10.37;;;7.87;;
10341;SDS011;5216;54.602;18.356;2024-03-06T01:58:21;9.13;;;7.33;;
10341;SDS011;5216;54.602;18.356;2024-03-06T02:00:49;9.17;;;6.90;;
10341;SDS011;5216;54.602;18.356;2024-03-06T02:03:17;9.17;;;7.63;;
10341;SDS011;5216;54.602;18.356;2024-03-06T02:05:46;9.03;;;7.23;;
10341;SDS011;5216;54.602;18.356;2024-03-06T02:08:15;8.33;;;7.50;;
10341;SDS011;5216;54.602;18.356;2024-03-06T02:10:44;9.03;;;7.60;;
10341;SDS011;5216;54.602;18.356;2024-03-06T02:13:11;8.00;;;7.30;;
10341;SDS011;5216;54.602;18.356;2024-03-06T02:15:40;10.80;;;7.70;;
10341;SDS011;5216;54.602;18.356;2024-03-06T02:18:07;8.67;;;7.73;;
10341;SDS011;5216;54.602;18.356;2024-03-06T02:20:37;10.63;;;7.30;;
10341;SDS011;5216;54.602;18.356;2024-03-06T02:23:05;7.93;;;7.13;;
10341;SDS011;5216;54.602;18.356;2024-03-06T02:25:32;9.20;;;8.10;;
10341;SDS011;5216;54.602;18.356;2024-03-06T02:27:59;9.40;;;7.40;;
10341;SDS011;5216;54.602;18.356;2024-03-06T02:30:26;11.47;;;7.30;;
10341;SDS011;5216;54.602;18.356;2024-03-06T02:32:52;8.10;;;7.20;;
10341;SDS011;5216;54.602;18.356;2024-03-06T02:35:19;8.87;;;7.50;;
10341;SDS011;5216;54.602;18.356;2024-03-06T02:37:46;8.67;;;7.80;;
10341;SDS011;5216;54.602;18.356;2024-03-06T02:40:13;8.83;;;6.97;;
10341;SDS011;5216;54.602;18.356;2024-03-06T02:42:40;9.47;;;7.63;;
10341;SDS011;5216;54.602;18.356;2024-03-06T02:45:07;8.20;;;7.40;;
10341;SDS011;5216;54.602;18.356;2024-03-06T02:47:35;9.43;;;8.03;;
10341;SDS011;5216;54.602;18.356;2024-03-06T02:50:02;10.33;;;8.10;;
10341;SDS011;5216;54.602;18.356;2024-03-06T02:52:29;8.70;;;7.63;;
10341;SDS011;5216;54.602;18.356;2024-03-06T02:54:56;9.30;;;8.03;;
10341;SDS011;5216;54.602;18.356;2024-03-06T02:57:22;8.43;;;7.60;;
10341;SDS011;5216;54.602;18.356;2024-03-06T02:59:49;10.43;;;7.97;;
10341;SDS011;5216;54.602;18.356;2024-03-06T03:02:16;8.10;;;7.30;;
10341;SDS011;5216;54.602;18.356;2024-03-06T03:04:43;9.17;;;7.60;;
10341;SDS011;5216;54.602;18.356;2024-03-06T03:07:10;8.73;;;7.50;;
10341;SDS011;5216;54.602;18.356;2024-03-06T03:09:37;11.00;;;7.90;;
10341;SDS011;5216;54.602;18.356;2024-03-06T03:12:05;8.77;;;7.77;;
10341;SDS011;5216;54.602;18.356;2024-03-06T03:14:32;8.97;;;7.77;;
10341;SDS011;5216;54.602;18.356;2024-03-06T03:17:00;8.53;;;7.60;;
10341;SDS011;5216;54.602;18.356;2024-03-06T03:19:27;9.17;;;8.13;;
10341;SDS011;5216;54.602;18.356;2024-03-06T03:21:54;9.37;;;7.87;;
10341;SDS011;5216;54.602;18.356;2024-03-06T03:24:21;9.50;;;7.70;;
10341;SDS011;5216;54.602;18.356;2024-03-06T03:26:48;9.80;;;7.93;;
10341;SDS011;5216;54.602;18.356;2024-03-06T03:29:15;8.80;;;8.00;;
10341;SDS011;5216;54.602;18.356;2024-03-06T03:31:42;8.07;;;7.27;;
10341;SDS011;5216;54.602;18.356;2024-03-06T03:34:09;8.93;;;7.80;;
10341;SDS011;5216;54.602;18.356;2024-03-06T03:36:40;9.83;;;8.00;;
10341;SDS011;5216;54.602;18.356;2024-03-06T03:39:08;8.03;;;7.23;;
10341;SDS011;5216;54.602;18.356;2024-03-06T03:41:43;9.67;;;7.13;;
10341;SDS011;5216;54.602;18.356;2024-03-06T03:44:15;8.90;;;7.30;;
10341;SDS011;5216;54.602;18.356;2024-03-06T03:46:43;7.70;;;7.00;;
10341;SDS011;5216;54.602;18.356;2024-03-06T03:49:11;8.80;;;7.10;;
10341;SDS011;5216;54.602;18.356;2024-03-06T03:51:38;8.43;;;7.17;;
10341;SDS011;5216;54.602;18.356;2024-03-06T03:54:06;8.50;;;7.60;;
10341;SDS011;5216;54.602;18.356;2024-03-06T03:56:33;7.87;;;7.07;;
10341;SDS011;5216;54.602;18.356;2024-03-06T03:59:00;7.60;;;6.83;;
10341;SDS011;5216;54.602;18.356;2024-03-06T04:01:27;11.97;;;7.83;;
10341;SDS011;5216;54.602;18.356;2024-03-06T04:03:54;9.03;;;7.30;;
10341;SDS011;5216;54.602;18.356;2024-03-06T04:06:20;8.77;;;7.87;;
10341;SDS011;5216;54.602;18.356;2024-03-06T04:08:47;8.57;;;7.00;;
10341;SDS011;5216;54.602;18.356;2024-03-06T04:11:15;7.83;;;7.03;;
10341;SDS011;5216;54.602;18.356;2024-03-06T04:13:42;10.83;;;7.07;;
10341;SDS011;5216;54.602;18.356;2024-03-06T04:16:09;10.30;;;6.93;;
10341;SDS011;5216;54.602;18.356;2024-03-06T04:18:36;13.13;;;7.57;;
10341;SDS011;5216;54.602;18.356;2024-03-06T04:21:06;9.57;;;7.33;;
10341;SDS011;5216;54.602;18.356;2024-03-06T04:23:33;8.60;;;7.50;;
10341;SDS011;5216;54.602;18.356;2024-03-06T04:26:00;10.43;;;7.07;;
10341;SDS011;5216;54.602;18.356;2024-03-06T04:28:27;8.37;;;6.53;;
10341;SDS011;5216;54.602;18.356;2024-03-06T04:30:54;9.20;;;6.90;;
10341;SDS011;5216;54.602;18.356;2024-03-06T04:33:21;7.27;;;6.53;;
10341;SDS011;5216;54.602;18.356;2024-03-06T04:35:48;7.73;;;6.80;;
10341;SDS011;5216;54.602;18.356;2024-03-06T04:38:15;9.00;;;7.33;;
10341;SDS011;5216;54.602;18.356;2024-03-06T04:40:42;7.73;;;6.60;;
10341;SDS011;5216;54.602;18.356;2024-03-06T04:43:09;8.73;;;6.93;;
10341;SDS011;5216;54.602;18.356;2024-03-06T04:45:36;7.47;;;6.77;;
10341;SDS011;5216;54.602;18.356;2024-03-06T04:48:02;9.90;;;7.20;;
10341;SDS011;5216;54.602;18.356;2024-03-06T04:50:29;8.90;;;6.70;;
10341;SDS011;5216;54.602;18.356;2024-03-06T04:52:56;11.13;;;6.90;;
10341;SDS011;5216;54.602;18.356;2024-03-06T04:55:23;9.50;;;6.57;;
10341;SDS011;5216;54.602;18.356;2024-03-06T04:57:51;7.73;;;6.60;;
10341;SDS011;5216;54.602;18.356;2024-03-06T05:00:22;7.97;;;6.53;;
10341;SDS011;5216;54.602;18.356;2024-03-06T05:02:49;7.67;;;6.40;;
10341;SDS011;5216;54.602;18.356;2024-03-06T05:05:33;7.87;;;6.90;;
10341;SDS011;5216;54.602;18.356;2024-03-06T05:08:17;7.90;;;6.97;;
10341;SDS011;5216;54.602;18.356;2024-03-06T05:11:02;7.33;;;6.37;;
10341;SDS011;5216;54.602;18.356;2024-03-06T05:13:46;9.23;;;7.40;;
10341;SDS011;5216;54.602;18.356;2024-03-06T05:16:30;8.53;;;7.10;;
10341;SDS011;5216;54.602;18.356;2024-03-06T05:19:14;9.13;;;6.97;;
10341;SDS011;5216;54.602;18.356;2024-03-06T05:21:58;9.53;;;6.77;;
10341;SDS011;5216;54.602;18.356;2024-03-06T05:24:43;7.97;;;6.80;;
10341;SDS011;5216;54.602;18.356;2024-03-06T05:27:27;7.70;;;6.93;;
10341;SDS011;5216;54.602;18.356;2024-03-06T05:30:12;7.40;;;6.30;;
10341;SDS011;5216;54.602;18.356;2024-03-06T05:32:56;8.23;;;6.33;;
10341;SDS011;5216;54.602;18.356;2024-03-06T05:35:40;7.83;;;6.70;;
10341;SDS011;5216;54.602;18.356;2024-03-06T05:38:24;8.07;;;6.30;;
10341;SDS011;5216;54.602;18.356;2024-03-06T05:41:08;7.60;;;6.70;;
10341;SDS011;5216;54.602;18.356;2024-03-06T05:43:53;7.17;;;6.43;;
10341;SDS011;5216;54.602;18.356;2024-03-06T05:46:37;7.70;;;6.90;;
10341;SDS011;5216;54.602;18.356;2024-03-06T05:49:21;8.67;;;6.50;;
10341;SDS011;5216;54.602;18.356;2024-03-06T05:52:06;9.70;;;6.43;;
10341;SDS011;5216;54.602;18.356;2024-03-06T05:54:50;10.63;;;7.10;;
10341;SDS011;5216;54.602;18.356;2024-03-06T05:57:34;8.67;;;6.73;;
10341;SDS011;5216;54.602;18.356;2024-03-06T06:00:18;8.37;;;6.00;;
10341;SDS011;5216;54.602;18.356;2024-03-06T06:02:48;7.00;;;6.00;;
10341;SDS011;5216;54.602;18.356;2024-03-06T06:05:15;7.70;;;6.00;;
10341;SDS011;5216;54.602;18.356;2024-03-06T06:07:49;11.37;;;6.87;;
10341;SDS011;5216;54.602;18.356;2024-03-06T06:10:17;7.73;;;6.73;;
10341;SDS011;5216;54.602;18.356;2024-03-06T06:12:47;7.53;;;6.70;;
10341;SDS011;5216;54.602;18.356;2024-03-06T06:15:15;7.20;;;6.30;;
10341;SDS011;5216;54.602;18.356;2024-03-06T06:17:42;7.10;;;6.20;;
10341;SDS011;5216;54.602;18.356;2024-03-06T06:20:11;9.27;;;6.53;;
10341;SDS011;5216;54.602;18.356;2024-03-06T06:22:43;7.07;;;6.20;;
10341;SDS011;5216;54.602;18.356;2024-03-06T06:25:10;7.97;;;6.60;;
10341;SDS011;5216;54.602;18.356;2024-03-06T06:27:37;6.87;;;6.10;;
10341;SDS011;5216;54.602;18.356;2024-03-06T06:30:05;7.20;;;6.13;;
10341;SDS011;5216;54.602;18.356;2024-03-06T06:32:33;7.77;;;6.20;;
10341;SDS011;5216;54.602;18.356;2024-03-06T06:35:01;6.80;;;5.77;;
10341;SDS011;5216;54.602;18.356;2024-03-06T06:37:28;8.40;;;6.10;;
10341;SDS011;5216;54.602;18.356;2024-03-06T06:39:55;7.33;;;5.80;;
10341;SDS011;5216;54.602;18.356;2024-03-06T06:42:22;8.53;;;6.07;;
10341;SDS011;5216;54.602;18.356;2024-03-06T06:44:48;7.77;;;6.20;;
10341;SDS011;5216;54.602;18.356;2024-03-06T06:47:15;6.87;;;5.63;;
10341;SDS011;5216;54.602;18.356;2024-03-06T06:49:42;9.57;;;6.10;;
10341;SDS011;5216;54.602;18.356;2024-03-06T06:52:11;7.97;;;5.80;;
10341;SDS011;5216;54.602;18.356;2024-03-06T06:54:38;7.63;;;6.30;;
10341;SDS011;5216;54.602;18.356;2024-03-06T06:57:05;7.67;;;5.63;;
10341;SDS011;5216;54.602;18.356;2024-03-06T06:59:31;7.60;;;6.00;;
10341;SDS011;5216;54.602;18.356;2024-03-06T07:01:58;6.10;;;5.50;;
10341;SDS011;5216;54.602;18.356;2024-03-06T07:04:25;7.77;;;6.50;;
10341;SDS011;5216;54.602;18.356;2024-03-06T07:06:52;8.50;;;7.60;;
10341;SDS011;5216;54.602;18.356;2024-03-06T07:09:19;7.43;;;6.50;;
10341;SDS011;5216;54.602;18.356;2024-03-06T07:11:46;6.47;;;5.77;;
10341;SDS011;5216;54.602;18.356;2024-03-06T07:14:16;7.73;;;6.10;;
10341;SDS011;5216;54.602;18.356;2024-03-06T07:16:43;6.77;;;5.13;;
10341;SDS011;5216;54.602;18.356;2024-03-06T07:19:10;6.23;;;5.63;;
10341;SDS011;5216;54.602;18.356;2024-03-06T07:21:37;7.73;;;6.17;;
10341;SDS011;5216;54.602;18.356;2024-03-06T07:24:04;6.53;;;5.70;;
10341;SDS011;5216;54.602;18.356;2024-03-06T07:26:32;8.40;;;5.30;;
10341;SDS011;5216;54.602;18.356;2024-03-06T07:28:59;6.10;;;5.50;;
10341;SDS011;5216;54.602;18.356;2024-03-06T07:31:27;7.83;;;5.90;;
10341;SDS011;5216;54.602;18.356;2024-03-06T07:33:54;7.70;;;5.80;;
10341;SDS011;5216;54.602;18.356;2024-03-06T07:36:21;8.10;;;6.07;;
10341;SDS011;5216;54.602;18.356;2024-03-06T07:38:48;7.53;;;5.90;;
10341;SDS011;5216;54.602;18.356;2024-03-06T07:41:15;19.50;;;17.47;;
10341;SDS011;5216;54.602;18.356;2024-03-06T07:43:42;17.73;;;14.97;;
10341;SDS011;5216;54.602;18.356;2024-03-06T07:46:10;8.63;;;6.80;;
10341;SDS011;5216;54.602;18.356;2024-03-06T07:48:37;6.83;;;5.53;;
10341;SDS011;5216;54.602;18.356;2024-03-06T07:51:05;8.70;;;5.90;;
10341;SDS011;5216;54.602;18.356;2024-03-06T07:53:32;6.93;;;5.40;;
10341;SDS011;5216;54.602;18.356;2024-03-06T07:55:58;6.87;;;5.83;;
10341;SDS011;5216;54.602;18.356;2024-03-06T07:58:25;8.03;;;5.80;;
10341;SDS011;5216;54.602;18.356;2024-03-06T08:00:52;8.37;;;5.73;;
10341;SDS011;5216;54.602;18.356;2024-03-06T08:03:22;8.37;;;5.50;;
10341;SDS011;5216;54.602;18.356;2024-03-06T08:05:51;9.00;;;5.63;;
10341;SDS011;5216;54.602;18.356;2024-03-06T08:08:21;8.67;;;5.80;;
10341;SDS011;5216;54.602;18.356;2024-03-06T08:10:48;10.07;;;6.27;;
10341;SDS011;5216;54.602;18.356;2024-03-06T08:13:16;6.73;;;5.80;;
10341;SDS011;5216;54.602;18.356;2024-03-06T08:15:45;9.37;;;5.90;;
10341;SDS011;5216;54.602;18.356;2024-03-06T08:18:12;10.07;;;6.10;;
10341;SDS011;5216;54.602;18.356;2024-03-06T08:20:42;6.90;;;5.70;;
10341;SDS011;5216;54.602;18.356;2024-03-06T08:23:09;7.77;;;5.73;;
10341;SDS011;5216;54.602;18.356;2024-03-06T08:25:38;7.87;;;5.40;;
10341;SDS011;5216;54.602;18.356;2024-03-06T08:28:05;6.80;;;5.60;;
10341;SDS011;5216;54.602;18.356;2024-03-06T08:30:32;8.20;;;5.33;;
10341;SDS011;5216;54.602;18.356;2024-03-06T08:32:59;6.43;;;5.77;;
10341;SDS011;5216;54.602;18.356;2024-03-06T08:35:27;6.67;;;5.97;;
10341;SDS011;5216;54.602;18.356;2024-03-06T08:37:54;6.97;;;5.43;;
10341;SDS011;5216;54.602;18.356;2024-03-06T08:40:21;6.87;;;6.17;;
10341;SDS011;5216;54.602;18.356;2024-03-06T08:42:49;6.70;;;5.90;;
10341;SDS011;5216;54.602;18.356;2024-03-06T08:45:16;7.27;;;5.70;;
10341;SDS011;5216;54.602;18.356;2024-03-06T08:47:44;6.17;;;5.57;;
10341;SDS011;5216;54.602;18.356;2024-03-06T08:50:12;8.93;;;5.87;;
10341;SDS011;5216;54.602;18.356;2024-03-06T08:52:39;7.93;;;5.90;;
10341;SDS011;5216;54.602;18.356;2024-03-06T08:55:08;6.00;;;5.40;;
10341;SDS011;5216;54.602;18.356;2024-03-06T08:57:35;8.03;;;5.93;;
10341;SDS011;5216;54.602;18.356;2024-03-06T09:00:03;7.97;;;6.03;;
10341;SDS011;5216;54.602;18.356;2024-03-06T09:02:35;9.53;;;6.23;;
10341;SDS011;5216;54.602;18.356;2024-03-06T09:05:02;8.57;;;6.47;;
10341;SDS011;5216;54.602;18.356;2024-03-06T09:07:31;8.00;;;5.50;;
10341;SDS011;5216;54.602;18.356;2024-03-06T09:09:58;8.30;;;6.20;;
10341;SDS011;5216;54.602;18.356;2024-03-06T09:12:24;7.43;;;6.47;;
10341;SDS011;5216;54.602;18.356;2024-03-06T09:14:51;8.70;;;6.30;;
10341;SDS011;5216;54.602;18.356;2024-03-06T09:17:18;8.80;;;6.43;;
10341;SDS011;5216;54.602;18.356;2024-03-06T09:19:44;8.20;;;6.67;;
10341;SDS011;5216;54.602;18.356;2024-03-06T09:22:29;7.47;;;6.17;;
10341;SDS011;5216;54.602;18.356;2024-03-06T09:24:56;9.60;;;6.77;;
10341;SDS011;5216;54.602;18.356;2024-03-06T09:27:23;9.13;;;6.40;;
10341;SDS011;5216;54.602;18.356;2024-03-06T09:29:49;9.30;;;6.43;;
10341;SDS011;5216;54.602;18.356;2024-03-06T09:32:16;9.23;;;6.83;;
10341;SDS011;5216;54.602;18.356;2024-03-06T09:34:45;6.90;;;6.20;;
10341;SDS011;5216;54.602;18.356;2024-03-06T09:37:12;9.27;;;6.43;;
10341;SDS011;5216;54.602;18.356;2024-03-06T09:39:39;10.37;;;6.23;;
10341;SDS011;5216;54.602;18.356;2024-03-06T09:42:05;8.97;;;6.63;;
10341;SDS011;5216;54.602;18.356;2024-03-06T09:44:34;7.90;;;6.43;;
10341;SDS011;5216;54.602;18.356;2024-03-06T09:47:02;8.87;;;6.53;;
10341;SDS011;5216;54.602;18.356;2024-03-06T09:49:32;7.90;;;5.97;;
10341;SDS011;5216;54.602;18.356;2024-03-06T09:52:01;9.40;;;6.20;;
10341;SDS011;5216;54.602;18.356;2024-03-06T09:54:29;7.53;;;5.93;;
10341;SDS011;5216;54.602;18.356;2024-03-06T09:56:57;6.90;;;6.20;;
10341;SDS011;5216;54.602;18.356;2024-03-06T09:59:25;10.00;;;6.03;;
10341;SDS011;5216;54.602;18.356;2024-03-06T10:01:54;8.00;;;6.20;;
10341;SDS011;5216;54.602;18.356;2024-03-06T10:04:23;9.33;;;6.47;;
10341;SDS011;5216;54.602;18.356;2024-03-06T10:06:57;11.83;;;6.33;;
10341;SDS011;5216;54.602;18.356;2024-03-06T10:09:26;8.57;;;6.10;;
10341;SDS011;5216;54.602;18.356;2024-03-06T10:11:53;10.13;;;6.60;;
10341;SDS011;5216;54.602;18.356;2024-03-06T10:14:22;7.07;;;6.10;;
10341;SDS011;5216;54.602;18.356;2024-03-06T10:16:57;7.40;;;5.70;;
10341;SDS011;5216;54.602;18.356;2024-03-06T10:19:25;9.10;;;6.07;;
10341;SDS011;5216;54.602;18.356;2024-03-06T10:21:57;9.30;;;6.43;;
10341;SDS011;5216;54.602;18.356;2024-03-06T10:24:28;8.27;;;6.67;;
10341;SDS011;5216;54.602;18.356;2024-03-06T10:26:56;10.13;;;6.20;;
10341;SDS011;5216;54.602;18.356;2024-03-06T10:29:26;6.80;;;5.80;;
10341;SDS011;5216;54.602;18.356;2024-03-06T10:31:54;9.03;;;6.33;;
10341;SDS011;5216;54.602;18.356;2024-03-06T10:34:29;6.80;;;6.03;;
10341;SDS011;5216;54.602;18.356;2024-03-06T10:36:56;8.37;;;6.30;;
10341;SDS011;5216;54.602;18.356;2024-03-06T10:39:24;7.77;;;6.50;;
10341;SDS011;5216;54.602;18.356;2024-03-06T10:41:52;11.47;;;6.33;;
10341;SDS011;5216;54.602;18.356;2024-03-06T10:44:24;10.00;;;6.50;;
10341;SDS011;5216;54.602;18.356;2024-03-06T10:46:59;10.43;;;6.47;;
10341;SDS011;5216;54.602;18.356;2024-03-06T10:49:30;8.17;;;6.10;;
10341;SDS011;5216;54.602;18.356;2024-03-06T10:51:59;8.83;;;6.47;;
10341;SDS011;5216;54.602;18.356;2024-03-06T10:54:27;10.13;;;6.90;;
10341;SDS011;5216;54.602;18.356;2024-03-06T10:56:58;9.07;;;6.73;;
10341;SDS011;5216;54.602;18.356;2024-03-06T10:59:26;8.53;;;6.73;;
10341;SDS011;5216;54.602;18.356;2024-03-06T11:01:57;11.30;;;7.13;;
10341;SDS011;5216;54.602;18.356;2024-03-06T11:04:28;9.27;;;6.63;;
10341;SDS011;5216;54.602;18.356;2024-03-06T11:06:56;9.03;;;6.37;;
10341;SDS011;5216;54.602;18.356;2024-03-06T11:09:38;8.97;;;6.33;;
10341;SDS011;5216;54.602;18.356;2024-03-06T11:12:05;7.70;;;6.20;;
10341;SDS011;5216;54.602;18.356;2024-03-06T11:14:36;8.37;;;6.30;;
10341;SDS011;5216;54.602;18.356;2024-03-06T11:17:10;8.23;;;6.10;;
10341;SDS011;5216;54.602;18.356;2024-03-06T11:28:20;8.17;;;5.83;;
10341;SDS011;5216;54.602;18.356;2024-03-06T11:30:57;6.67;;;5.90;;
10341;SDS011;5216;54.602;18.356;2024-03-06T11:33:40;6.20;;;5.60;;
10341;SDS011;5216;54.602;18.356;2024-03-06T11:38:57;8.90;;;5.90;;
10341;SDS011;5216;54.602;18.356;2024-03-06T11:44:02;8.03;;;5.97;;
10341;SDS011;5216;54.602;18.356;2024-03-06T11:49:18;6.73;;;5.60;;
10341;SDS011;5216;54.602;18.356;2024-03-06T11:51:53;6.90;;;5.57;;
10341;SDS011;5216;54.602;18.356;2024-03-06T11:54:24;8.90;;;6.13;;
10341;SDS011;5216;54.602;18.356;2024-03-06T11:56:55;8.13;;;5.50;;
10341;SDS011;5216;54.602;18.356;2024-03-06T11:59:25;7.60;;;6.20;;
10341;SDS011;5216;54.602;18.356;2024-03-06T12:02:00;9.23;;;5.43;;
10341;SDS011;5216;54.602;18.356;2024-03-06T12:04:29;8.50;;;5.83;;
10341;SDS011;5216;54.602;18.356;2024-03-06T12:06:57;7.17;;;5.43;;
10341;SDS011;5216;54.602;18.356;2024-03-06T12:09:37;8.60;;;6.17;;
10341;SDS011;5216;54.602;18.356;2024-03-06T12:12:09;6.43;;;5.67;;
10341;SDS011;5216;54.602;18.356;2024-03-06T12:14:37;8.30;;;5.50;;
10341;SDS011;5216;54.602;18.356;2024-03-06T12:17:10;6.17;;;5.57;;
10341;SDS011;5216;54.602;18.356;2024-03-06T12:19:40;6.57;;;5.60;;
10341;SDS011;5216;54.602;18.356;2024-03-06T12:22:10;6.23;;;5.20;;
10341;SDS011;5216;54.602;18.356;2024-03-06T12:24:37;5.93;;;5.30;;
10341;SDS011;5216;54.602;18.356;2024-03-06T12:27:04;6.27;;;5.20;;
10341;SDS011;5216;54.602;18.356;2024-03-06T12:29:34;6.13;;;5.33;;
10341;SDS011;5216;54.602;18.356;2024-03-06T12:32:02;7.83;;;5.50;;
10341;SDS011;5216;54.602;18.356;2024-03-06T12:34:30;6.63;;;5.20;;
10341;SDS011;5216;54.602;18.356;2024-03-06T12:37:10;8.13;;;5.57;;
10341;SDS011;5216;54.602;18.356;2024-03-06T12:39:38;7.87;;;5.70;;
10341;SDS011;5216;54.602;18.356;2024-03-06T12:42:09;7.43;;;5.03;;
10341;SDS011;5216;54.602;18.356;2024-03-06T12:44:36;10.07;;;5.50;;
10341;SDS011;5216;54.602;18.356;2024-03-06T12:47:03;7.00;;;5.37;;
10341;SDS011;5216;54.602;18.356;2024-03-06T12:49:29;7.33;;;5.47;;
10341;SDS011;5216;54.602;18.356;2024-03-06T12:51:56;6.10;;;5.50;;
10341;SDS011;5216;54.602;18.356;2024-03-06T12:54:26;7.13;;;5.83;;
10341;SDS011;5216;54.602;18.356;2024-03-06T12:56:53;7.03;;;5.57;;
10341;SDS011;5216;54.602;18.356;2024-03-06T12:59:20;7.77;;;5.30;;
10341;SDS011;5216;54.602;18.356;2024-03-06T13:01:47;7.53;;;5.93;;
10341;SDS011;5216;54.602;18.356;2024-03-06T13:04:13;10.80;;;6.03;;
10341;SDS011;5216;54.602;18.356;2024-03-06T13:06:40;7.33;;;5.57;;
10341;SDS011;5216;54.602;18.356;2024-03-06T13:09:07;8.03;;;5.87;;
10341;SDS011;5216;54.602;18.356;2024-03-06T13:11:34;7.73;;;5.77;;
10341;SDS011;5216;54.602;18.356;2024-03-06T13:14:00;9.43;;;5.50;;
10341;SDS011;5216;54.602;18.356;2024-03-06T13:16:27;7.33;;;6.03;;
10341;SDS011;5216;54.602;18.356;2024-03-06T13:18:54;6.60;;;5.37;;
10341;SDS011;5216;54.602;18.356;2024-03-06T13:21:23;9.23;;;5.57;;
10341;SDS011;5216;54.602;18.356;2024-03-06T13:23:49;7.07;;;5.53;;
10341;SDS011;5216;54.602;18.356;2024-03-06T13:26:16;5.70;;;5.20;;
10341;SDS011;5216;54.602;18.356;2024-03-06T13:28:44;11.20;;;5.83;;
10341;SDS011;5216;54.602;18.356;2024-03-06T13:31:12;19.67;;;6.37;;
10341;SDS011;5216;54.602;18.356;2024-03-06T13:33:39;7.07;;;5.70;;
10341;SDS011;5216;54.602;18.356;2024-03-06T13:36:06;10.13;;;6.00;;
10341;SDS011;5216;54.602;18.356;2024-03-06T13:38:34;9.13;;;5.97;;
10341;SDS011;5216;54.602;18.356;2024-03-06T13:41:02;8.63;;;5.27;;
10341;SDS011;5216;54.602;18.356;2024-03-06T13:43:29;8.73;;;5.70;;
10341;SDS011;5216;54.602;18.356;2024-03-06T13:45:56;9.30;;;7.17;;
10341;SDS011;5216;54.602;18.356;2024-03-06T13:48:23;9.07;;;7.50;;
10341;SDS011;5216;54.602;18.356;2024-03-06T13:50:49;7.00;;;5.53;;
10341;SDS011;5216;54.602;18.356;2024-03-06T13:53:17;10.50;;;5.67;;
10341;SDS011;5216;54.602;18.356;2024-03-06T13:55:43;9.37;;;5.77;;
10341;SDS011;5216;54.602;18.356;2024-03-06T13:58:10;7.80;;;5.90;;
10341;SDS011;5216;54.602;18.356;2024-03-06T14:00:38;5.70;;;5.20;;
10341;SDS011;5216;54.602;18.356;2024-03-06T14:03:04;8.57;;;5.60;;
10341;SDS011;5216;54.602;18.356;2024-03-06T14:05:31;6.37;;;5.43;;
10341;SDS011;5216;54.602;18.356;2024-03-06T14:07:58;7.20;;;5.20;;
10341;SDS011;5216;54.602;18.356;2024-03-06T14:10:28;12.67;;;5.90;;
10341;SDS011;5216;54.602;18.356;2024-03-06T14:13:07;6.03;;;4.70;;
10341;SDS011;5216;54.602;18.356;2024-03-06T14:15:35;9.33;;;5.40;;
10341;SDS011;5216;54.602;18.356;2024-03-06T14:18:04;8.53;;;5.50;;
10341;SDS011;5216;54.602;18.356;2024-03-06T14:20:33;6.33;;;4.93;;
10341;SDS011;5216;54.602;18.356;2024-03-06T14:22:59;6.13;;;4.90;;
10341;SDS011;5216;54.602;18.356;2024-03-06T14:25:26;8.03;;;5.33;;
10341;SDS011;5216;54.602;18.356;2024-03-06T14:27:59;6.90;;;5.60;;
10341;SDS011;5216;54.602;18.356;2024-03-06T14:30:25;7.23;;;5.27;;
10341;SDS011;5216;54.602;18.356;2024-03-06T14:32:52;7.03;;;5.27;;
10341;SDS011;5216;54.602;18.356;2024-03-06T14:35:19;7.63;;;4.90;;
10341;SDS011;5216;54.602;18.356;2024-03-06T14:37:46;7.90;;;5.50;;
10341;SDS011;5216;54.602;18.356;2024-03-06T14:40:12;6.60;;;5.23;;
10341;SDS011;5216;54.602;18.356;2024-03-06T14:42:39;5.87;;;5.27;;
10341;SDS011;5216;54.602;18.356;2024-03-06T14:45:06;8.20;;;5.40;;
10341;SDS011;5216;54.602;18.356;2024-03-06T14:47:33;7.57;;;5.30;;
10341;SDS011;5216;54.602;18.356;2024-03-06T14:50:00;7.73;;;4.90;;
10341;SDS011;5216;54.602;18.356;2024-03-06T14:52:27;8.00;;;5.30;;
10341;SDS011;5216;54.602;18.356;2024-03-06T14:54:54;7.17;;;5.27;;
10341;SDS011;5216;54.602;18.356;2024-03-06T14:57:21;7.50;;;5.10;;
10341;SDS011;5216;54.602;18.356;2024-03-06T14:59:49;5.73;;;4.47;;
10341;SDS011;5216;54.602;18.356;2024-03-06T15:02:17;10.50;;;5.40;;
10341;SDS011;5216;54.602;18.356;2024-03-06T15:04:43;6.77;;;5.10;;
10341;SDS011;5216;54.602;18.356;2024-03-06T15:07:10;6.53;;;5.00;;
10341;SDS011;5216;54.602;18.356;2024-03-06T15:09:37;8.17;;;5.43;;
10341;SDS011;5216;54.602;18.356;2024-03-06T15:12:04;6.43;;;5.20;;